createdAt,value
2023-01-25T00:00:31.076Z,99538.22
2023-01-25T00:01:33.941Z,99534.78
2023-01-25T00:02:37.032Z,99538.94
2023-01-25T00:03:40.659Z,99536.47
2023-01-25T00:04:43.616Z,99542.84
2023-01-25T00:05:46.579Z,99539.38
2023-01-25T00:06:50.223Z,99547.00
2023-01-25T00:07:53.461Z,99543.59
2023-01-25T00:08:56.377Z,99544.03
2023-01-25T00:09:59.334Z,99542.75
2023-01-25T00:11:02.418Z,99540.84
2023-01-25T00:12:05.720Z,99547.00
2023-01-25T00:13:08.759Z,99556.50
2023-01-25T00:14:12.726Z,99557.44
2023-01-25T00:15:15.816Z,99553.19
2023-01-25T00:16:19.126Z,99557.78
2023-01-25T00:17:22.196Z,99562.44
2023-01-25T00:18:28.648Z,99557.97
2023-01-25T00:19:31.800Z,99556.69
2023-01-25T00:20:34.728Z,99560.81
2023-01-25T00:21:38.096Z,99561.31
2023-01-25T00:22:41.482Z,99555.47
2023-01-25T00:23:44.767Z,99558.41
2023-01-25T00:24:47.924Z,99559.94
2023-01-25T00:25:58.653Z,99565.16
2023-01-25T00:27:02.531Z,99560.94
2023-01-25T00:28:05.511Z,99571.75
2023-01-25T00:29:09.110Z,99567.81
2023-01-25T00:30:12.883Z,99564.16
2023-01-25T00:31:22.528Z,99562.88
2023-01-25T00:32:38.130Z,99561.19
2023-01-25T00:33:51.826Z,99556.78
2023-01-25T00:34:54.655Z,99562.69
2023-01-25T00:35:57.823Z,99560.94
2023-01-25T00:37:24.023Z,99560.38
2023-01-25T00:38:35.459Z,99552.75
2023-01-25T00:39:39.504Z,99552.03
2023-01-25T00:40:42.501Z,99558.66
2023-01-25T00:41:45.554Z,99557.91
2023-01-25T00:42:48.531Z,99553.72
2023-01-25T00:43:51.395Z,99557.91
2023-01-25T00:44:54.388Z,99556.16
2023-01-25T00:46:03.320Z,99549.75
2023-01-25T00:47:06.841Z,99553.69
2023-01-25T00:48:09.903Z,99552.16
2023-01-25T00:49:31.954Z,99555.66
2023-01-25T00:50:36.951Z,99562.28
2023-01-25T00:51:39.793Z,99562.03
2023-01-25T00:52:42.789Z,99560.06
2023-01-25T00:53:45.943Z,99557.31
2023-01-25T00:54:49.078Z,99563.22
2023-01-25T00:55:55.202Z,99564.44
2023-01-25T00:57:01.951Z,99561.94
2023-01-25T00:58:05.074Z,99565.56
2023-01-25T00:59:08.326Z,99568.56
2023-01-25T01:00:13.944Z,99557.94
2023-01-25T01:01:19.200Z,99560.66
2023-01-25T01:02:22.368Z,99560.16
2023-01-25T01:03:25.444Z,99560.91
2023-01-25T01:04:28.545Z,99563.59
2023-01-25T01:05:31.509Z,99560.91
2023-01-25T01:06:41.930Z,99564.31
2023-01-25T01:07:44.985Z,99558.63
2023-01-25T01:08:48.541Z,99563.28
2023-01-25T01:09:51.496Z,99558.56
2023-01-25T01:11:00.634Z,99560.28
2023-01-25T01:12:03.826Z,99557.28
2023-01-25T01:13:06.972Z,99565.13
2023-01-25T01:14:09.972Z,99565.13
2023-01-25T01:15:13.118Z,99556.03
2023-01-25T01:16:17.213Z,99566.63
2023-01-25T01:17:20.535Z,99565.87
2023-01-25T01:18:25.062Z,99558.56
2023-01-25T01:19:27.977Z,99560.53
2023-01-25T01:20:30.887Z,99562.69
2023-01-25T01:21:33.977Z,99562.91
2023-01-25T01:22:36.941Z,99567.78
2023-01-25T01:23:41.087Z,99565.00
2023-01-25T01:24:44.105Z,99570.00
2023-01-25T01:25:47.623Z,99566.75
2023-01-25T01:26:50.711Z,99565.75
2023-01-25T01:27:53.624Z,99561.81
2023-01-25T01:28:57.906Z,99558.44
2023-01-25T01:30:01.424Z,99567.28
2023-01-25T01:31:07.140Z,99559.41
2023-01-25T01:32:10.163Z,99564.59
2023-01-25T01:33:13.223Z,99555.81
2023-01-25T01:34:16.346Z,99562.91
2023-01-25T01:35:19.386Z,99558.44
2023-01-25T01:36:26.459Z,99558.25
2023-01-25T01:37:29.558Z,99562.91
2023-01-25T01:38:33.330Z,99557.78
2023-01-25T01:39:36.300Z,99558.03
2023-01-25T01:40:45.471Z,99564.53
2023-01-25T01:41:48.435Z,99566.25
2023-01-25T01:43:06.981Z,99562.56
2023-01-25T01:44:17.832Z,99563.03
2023-01-25T01:45:46.035Z,99567.75
2023-01-25T01:46:56.429Z,99568.03
2023-01-25T01:47:59.567Z,99569.63
2023-01-25T01:49:25.603Z,99571.03
2023-01-25T01:50:29.158Z,99569.25
2023-01-25T01:51:41.379Z,99568.97
2023-01-25T01:52:44.552Z,99564.16
2023-01-25T01:54:00.325Z,99557.53
2023-01-25T01:55:15.143Z,99556.78
2023-01-25T01:56:28.021Z,99560.50
2023-01-25T01:57:53.935Z,99557.06
2023-01-25T01:58:59.613Z,99557.81
2023-01-25T02:00:19.562Z,99564.16
2023-01-25T02:01:22.612Z,99549.34
2023-01-25T02:02:27.201Z,99559.72
2023-01-25T02:03:31.708Z,99558.25
2023-01-25T02:04:34.767Z,99553.81
2023-01-25T02:05:47.328Z,99552.84
2023-01-25T02:07:11.700Z,99551.37
2023-01-25T02:08:16.132Z,99544.50
2023-01-25T02:09:24.198Z,99548.09
2023-01-25T02:10:28.667Z,99544.91
2023-01-25T02:11:34.317Z,99547.56
2023-01-25T02:12:38.697Z,99548.72
2023-01-25T02:13:41.869Z,99546.47
2023-01-25T02:14:51.694Z,99549.41
2023-01-25T02:15:57.101Z,99552.09
2023-01-25T02:17:00.902Z,99549.66
2023-01-25T02:18:04.153Z,99548.88
2023-01-25T02:19:13.750Z,99552.97
2023-01-25T02:20:26.990Z,99547.03
2023-01-25T02:21:37.321Z,99553.88
2023-01-25T02:22:47.385Z,99547.25
2023-01-25T02:24:01.742Z,99552.13
2023-01-25T02:25:12.696Z,99547.72
2023-01-25T02:26:18.434Z,99545.72
2023-01-25T02:27:22.148Z,99545.16
2023-01-25T02:28:34.737Z,99545.16
2023-01-25T02:29:38.962Z,99552.72
2023-01-25T02:30:43.457Z,99541.44
2023-01-25T02:31:49.865Z,99549.34
2023-01-25T02:32:52.899Z,99549.00
2023-01-25T02:33:55.916Z,99548.47
2023-01-25T02:34:58.894Z,99548.94
2023-01-25T02:36:07.567Z,99550.13
2023-01-25T02:37:15.289Z,99544.28
2023-01-25T02:38:21.466Z,99546.69
2023-01-25T02:39:26.870Z,99545.69
2023-01-25T02:40:36.941Z,99538.34
2023-01-25T02:41:43.111Z,99534.63
2023-01-25T02:42:46.777Z,99529.44
2023-01-25T02:43:52.944Z,99535.50
2023-01-25T02:44:55.853Z,99527.94
2023-01-25T02:46:12.282Z,99525.19
2023-01-25T02:47:18.939Z,99530.03
2023-01-25T02:48:22.420Z,99514.75
2023-01-25T02:49:25.859Z,99517.94
2023-01-25T02:50:32.139Z,99521.37
2023-01-25T02:51:38.288Z,99524.81
2023-01-25T02:52:41.344Z,99514.50
2023-01-25T02:53:44.331Z,99514.97
2023-01-25T02:54:47.186Z,99509.03
2023-01-25T02:55:50.119Z,99515.16
2023-01-25T02:56:53.132Z,99512.22
2023-01-25T02:57:56.106Z,99511.06
2023-01-25T02:58:59.738Z,99510.31
2023-01-25T03:00:04.130Z,99514.25
2023-01-25T03:01:12.271Z,99514.50
2023-01-25T03:02:15.304Z,99512.34
2023-01-25T03:03:18.339Z,99513.03
2023-01-25T03:04:21.309Z,99509.09
2023-01-25T03:05:24.210Z,99512.22
2023-01-25T03:06:27.354Z,99517.78
2023-01-25T03:07:30.239Z,99511.66
2023-01-25T03:08:35.643Z,99512.41
2023-01-25T03:09:38.618Z,99513.34
2023-01-25T03:10:41.714Z,99507.41
2023-01-25T03:11:44.644Z,99507.13
2023-01-25T03:12:47.602Z,99512.78
2023-01-25T03:13:50.512Z,99509.16
2023-01-25T03:14:53.792Z,99502.00
2023-01-25T03:16:12.568Z,99502.56
2023-01-25T03:17:15.646Z,99499.31
2023-01-25T03:18:18.767Z,99494.38
2023-01-25T03:19:22.588Z,99497.34
2023-01-25T03:20:25.615Z,99499.78
2023-01-25T03:21:28.635Z,99495.31
2023-01-25T03:22:31.874Z,99497.00
2023-01-25T03:23:35.349Z,99500.72
2023-01-25T03:24:38.372Z,99505.19
2023-01-25T03:25:41.517Z,99494.56
2023-01-25T03:27:03.075Z,99503.69
2023-01-25T03:28:06.201Z,99504.38
2023-01-25T03:29:09.190Z,99502.16
2023-01-25T03:30:12.737Z,99502.91
2023-01-25T03:31:17.205Z,99490.06
2023-01-25T03:32:20.367Z,99499.16
2023-01-25T03:33:23.559Z,99503.09
2023-01-25T03:34:26.620Z,99502.81
2023-01-25T03:35:29.617Z,99493.69
2023-01-25T03:36:32.609Z,99503.56
2023-01-25T03:37:35.537Z,99508.88
2023-01-25T03:38:39.020Z,99506.66
2023-01-25T03:39:47.902Z,99506.66
2023-01-25T03:40:54.098Z,99508.16
2023-01-25T03:41:57.175Z,99511.31
2023-01-25T03:43:00.020Z,99514.47
2023-01-25T03:44:02.944Z,99505.63
2023-01-25T03:45:06.585Z,99512.06
2023-01-25T03:46:09.771Z,99505.72
2023-01-25T03:47:12.799Z,99507.75
2023-01-25T03:48:15.822Z,99505.53
2023-01-25T03:49:18.942Z,99507.56
2023-01-25T03:50:22.158Z,99505.03
2023-01-25T03:51:25.344Z,99502.56
2023-01-25T03:52:30.333Z,99508.97
2023-01-25T03:53:33.317Z,99503.09
2023-01-25T03:54:36.177Z,99505.13
2023-01-25T03:55:39.030Z,99497.03
2023-01-25T03:56:41.991Z,99498.03
2023-01-25T03:57:45.065Z,99499.25
2023-01-25T03:58:51.975Z,99495.81
2023-01-25T03:59:55.399Z,99496.47
2023-01-25T04:01:00.243Z,99501.88
2023-01-25T04:02:03.255Z,99487.38
2023-01-25T04:03:06.138Z,99497.44
2023-01-25T04:04:09.024Z,99496.13
2023-01-25T04:05:12.187Z,99492.44
2023-01-25T04:06:20.873Z,99490.47
2023-01-25T04:07:24.284Z,99488.03
2023-01-25T04:08:31.951Z,99495.12
2023-01-25T04:09:35.670Z,99488.22
2023-01-25T04:10:38.696Z,99491.22
2023-01-25T04:11:41.854Z,99493.34
2023-01-25T04:12:44.695Z,99489.19
2023-01-25T04:13:47.961Z,99491.69
2023-01-25T04:14:52.096Z,99496.59
2023-01-25T04:15:55.181Z,99490.47
2023-01-25T04:16:58.970Z,99493.09
2023-01-25T04:18:02.335Z,99495.06
2023-01-25T04:19:08.043Z,99490.41
2023-01-25T04:20:12.304Z,99488.91
2023-01-25T04:21:17.027Z,99494.25
2023-01-25T04:22:19.997Z,99489.28
2023-01-25T04:23:24.212Z,99493.69
2023-01-25T04:24:27.072Z,99502.25
2023-01-25T04:25:30.055Z,99497.31
2023-01-25T04:26:33.051Z,99494.06
2023-01-25T04:27:36.053Z,99496.47
2023-01-25T04:28:39.200Z,99498.53
2023-01-25T04:29:42.263Z,99493.59
2023-01-25T04:30:45.483Z,99496.47
2023-01-25T04:31:48.793Z,99493.22
2023-01-25T04:32:51.983Z,99494.25
2023-01-25T04:33:56.109Z,99496.66
2023-01-25T04:34:59.084Z,99498.53
2023-01-25T04:36:02.463Z,99502.25
2023-01-25T04:37:05.476Z,99502.44
2023-01-25T04:38:11.083Z,99499.44
2023-01-25T04:39:14.286Z,99505.59
2023-01-25T04:40:17.463Z,99503.34
2023-01-25T04:41:21.387Z,99497.97
2023-01-25T04:42:24.260Z,99508.31
2023-01-25T04:43:27.419Z,99496.31
2023-01-25T04:44:30.430Z,99505.13
2023-01-25T04:45:34.106Z,99506.28
2023-01-25T04:46:37.013Z,99502.44
2023-01-25T04:47:40.263Z,99501.69
2023-01-25T04:48:43.310Z,99504.94
2023-01-25T04:49:46.305Z,99507.44
2023-01-25T04:50:49.405Z,99496.16
2023-01-25T04:51:52.547Z,99494.31
2023-01-25T04:52:55.655Z,99495.78
2023-01-25T04:53:58.585Z,99504.63
2023-01-25T04:55:01.523Z,99492.13
2023-01-25T04:56:04.827Z,99502.75
2023-01-25T04:57:07.738Z,99496.41
2023-01-25T04:58:12.071Z,99497.69
2023-01-25T04:59:15.995Z,99500.25
2023-01-25T05:00:20.495Z,99496.97
2023-01-25T05:01:23.669Z,99493.03
2023-01-25T05:02:28.035Z,99494.81
2023-01-25T05:03:31.220Z,99497.91
2023-01-25T05:04:34.194Z,99492.31
2023-01-25T05:05:37.239Z,99496.19
2023-01-25T05:06:40.217Z,99502.56
2023-01-25T05:07:43.571Z,99500.41
2023-01-25T05:08:47.537Z,99505.34
2023-01-25T05:09:50.626Z,99501.97
2023-01-25T05:10:53.577Z,99500.25
2023-01-25T05:11:56.437Z,99503.56
2023-01-25T05:12:59.364Z,99503.13
2023-01-25T05:14:02.437Z,99499.97
2023-01-25T05:15:06.563Z,99499.28
2023-01-25T05:16:09.909Z,99498.31
2023-01-25T05:17:12.847Z,99508.66
2023-01-25T05:18:16.117Z,99509.69
2023-01-25T05:19:19.140Z,99505.25
2023-01-25T05:20:22.076Z,99515.88
2023-01-25T05:21:45.233Z,99512.97
2023-01-25T05:22:48.293Z,99507.34
2023-01-25T05:23:51.352Z,99504.16
2023-01-25T05:24:54.711Z,99507.38
2023-01-25T05:26:16.341Z,99502.03
2023-01-25T05:27:20.836Z,99507.72
2023-01-25T05:28:30.451Z,99511.72
2023-01-25T05:29:38.743Z,99505.13
2023-01-25T05:30:41.613Z,99510.78
2023-01-25T05:31:44.733Z,99506.66
2023-01-25T05:32:50.320Z,99505.41
2023-01-25T05:33:53.280Z,99513.53
2023-01-25T05:34:56.385Z,99515.75
2023-01-25T05:35:59.505Z,99516.50
2023-01-25T05:37:03.454Z,99510.91
2023-01-25T05:38:06.750Z,99518.03
2023-01-25T05:39:10.354Z,99515.34
2023-01-25T05:40:13.664Z,99513.19
2023-01-25T05:41:16.857Z,99516.16
2023-01-25T05:42:20.015Z,99512.28
2023-01-25T05:43:24.713Z,99517.88
2023-01-25T05:44:28.605Z,99518.91
2023-01-25T05:45:31.592Z,99509.28
2023-01-25T05:46:34.455Z,99512.53
2023-01-25T05:47:37.619Z,99507.81
2023-01-25T05:48:43.401Z,99502.88
2023-01-25T05:49:46.984Z,99505.59
2023-01-25T05:50:49.896Z,99504.16
2023-01-25T05:51:52.906Z,99511.75
2023-01-25T05:52:55.788Z,99505.84
2023-01-25T05:53:58.857Z,99505.53
2023-01-25T05:55:01.713Z,99509.47
2023-01-25T05:56:10.554Z,99506.50
2023-01-25T05:57:14.837Z,99503.38
2023-01-25T05:58:17.808Z,99506.84
2023-01-25T05:59:20.809Z,99511.31
2023-01-25T06:00:24.281Z,99511.59
2023-01-25T06:01:28.210Z,99502.72
2023-01-25T06:02:32.608Z,99506.63
2023-01-25T06:03:35.822Z,99506.37
2023-01-25T06:04:38.869Z,99503.91
2023-01-25T06:05:42.037Z,99506.78
2023-01-25T06:06:45.236Z,99497.66
2023-01-25T06:07:48.271Z,99505.47
2023-01-25T06:08:51.547Z,99506.91
2023-01-25T06:09:58.145Z,99513.78
2023-01-25T06:11:10.558Z,99508.69
2023-01-25T06:12:13.472Z,99509.94
2023-01-25T06:13:16.697Z,99501.84
2023-01-25T06:14:19.597Z,99513.37
2023-01-25T06:15:22.527Z,99510.91
2023-01-25T06:16:25.446Z,99512.09
2023-01-25T06:17:28.323Z,99515.75
2023-01-25T06:18:33.201Z,99509.12
2023-01-25T06:19:36.179Z,99517.72
2023-01-25T06:20:39.959Z,99517.66
2023-01-25T06:21:42.839Z,99519.84
2023-01-25T06:22:50.815Z,99519.16
2023-01-25T06:23:54.346Z,99518.16
2023-01-25T06:24:57.346Z,99524.28
2023-01-25T06:26:06.203Z,99520.63
2023-01-25T06:27:09.126Z,99526.94
2023-01-25T06:28:11.992Z,99528.47
2023-01-25T06:29:14.888Z,99528.69
2023-01-25T06:30:17.969Z,99529.59
2023-01-25T06:31:21.343Z,99530.28
2023-01-25T06:32:26.360Z,99524.25
2023-01-25T06:33:29.205Z,99540.16
2023-01-25T06:34:32.137Z,99538.25
2023-01-25T06:35:35.187Z,99535.00
2023-01-25T06:36:38.120Z,99534.28
2023-01-25T06:37:41.160Z,99534.84
2023-01-25T06:38:48.040Z,99534.69
2023-01-25T06:39:51.280Z,99534.91
2023-01-25T06:40:54.301Z,99541.25
2023-01-25T06:41:57.139Z,99533.59
2023-01-25T06:43:10.517Z,99545.38
2023-01-25T06:44:13.310Z,99537.88
2023-01-25T06:45:16.431Z,99541.06
2023-01-25T06:46:20.658Z,99538.34
2023-01-25T06:47:23.745Z,99539.97
2023-01-25T06:48:27.143Z,99535.53
2023-01-25T06:49:30.502Z,99540.81
2023-01-25T06:50:33.451Z,99543.75
2023-01-25T06:51:36.313Z,99542.03
2023-01-25T06:52:39.348Z,99535.37
2023-01-25T06:53:44.230Z,99549.16
2023-01-25T06:54:47.124Z,99540.78
2023-01-25T06:55:57.572Z,99542.78
2023-01-25T06:57:00.711Z,99540.53
2023-01-25T06:58:03.974Z,99537.28
2023-01-25T06:59:09.345Z,99532.41
2023-01-25T07:00:12.721Z,99535.66
2023-01-25T07:01:21.676Z,99543.22
2023-01-25T07:02:24.916Z,99539.28
2023-01-25T07:03:29.000Z,99525.25
2023-01-25T07:04:33.172Z,99536.09
2023-01-25T07:05:36.237Z,99533.72
2023-01-25T07:06:39.943Z,99534.41
2023-01-25T07:07:47.397Z,99529.22
2023-01-25T07:08:51.793Z,99529.72
2023-01-25T07:09:54.862Z,99537.03
2023-01-25T07:11:00.181Z,99534.03
2023-01-25T07:12:04.963Z,99538.25
2023-01-25T07:13:07.822Z,99539.44
2023-01-25T07:14:10.708Z,99535.00
2023-01-25T07:15:13.659Z,99525.69
2023-01-25T07:16:19.946Z,99529.41
2023-01-25T07:17:23.143Z,99530.13
2023-01-25T07:18:28.920Z,99534.31
2023-01-25T07:19:32.162Z,99539.50
2023-01-25T07:20:35.134Z,99524.84
2023-01-25T07:21:38.281Z,99532.94
2023-01-25T07:22:41.301Z,99526.50
2023-01-25T07:23:45.166Z,99523.44
2023-01-25T07:24:51.082Z,99526.34
2023-01-25T07:25:54.219Z,99523.31
2023-01-25T07:26:57.512Z,99532.22
2023-01-25T07:28:00.525Z,99531.06
2023-01-25T07:29:03.810Z,99525.19
2023-01-25T07:30:07.218Z,99524.12
2023-01-25T07:31:12.363Z,99516.62
2023-01-25T07:32:15.276Z,99524.78
2023-01-25T07:33:18.506Z,99524.81
2023-01-25T07:34:21.558Z,99523.78
2023-01-25T07:35:24.499Z,99529.44
2023-01-25T07:36:27.591Z,99535.63
2023-01-25T07:37:30.478Z,99534.59
2023-01-25T07:38:34.020Z,99533.88
2023-01-25T07:39:37.132Z,99526.69
2023-01-25T07:40:40.192Z,99535.84
2023-01-25T07:41:43.144Z,99529.50
2023-01-25T07:42:46.263Z,99526.78
2023-01-25T07:43:49.342Z,99535.13
2023-01-25T07:44:52.181Z,99530.22
2023-01-25T07:46:00.404Z,99534.00
2023-01-25T07:47:03.416Z,99528.31
2023-01-25T07:48:12.230Z,99530.03
2023-01-25T07:49:16.084Z,99524.41
2023-01-25T07:50:19.031Z,99526.38
2023-01-25T07:51:23.361Z,99522.69
2023-01-25T07:52:26.821Z,99524.91
2023-01-25T07:53:29.634Z,99534.97
2023-01-25T07:54:32.576Z,99534.97
2023-01-25T07:55:35.890Z,99533.00
2023-01-25T07:56:41.024Z,99536.03
2023-01-25T07:57:44.024Z,99540.00
2023-01-25T07:58:49.381Z,99536.06
2023-01-25T07:59:52.218Z,99542.72
2023-01-25T08:00:55.320Z,99541.47
2023-01-25T08:01:58.293Z,99537.31
2023-01-25T08:03:01.453Z,99535.09
2023-01-25T08:04:05.161Z,99526.03
2023-01-25T08:05:08.769Z,99533.72
2023-01-25T08:06:12.773Z,99532.00
2023-01-25T08:07:15.724Z,99532.97
2023-01-25T08:08:18.930Z,99532.97
2023-01-25T08:09:21.994Z,99532.09
2023-01-25T08:10:24.964Z,99531.59
2023-01-25T08:11:30.968Z,99533.78
2023-01-25T08:12:34.679Z,99531.00
2023-01-25T08:13:38.111Z,99533.44
2023-01-25T08:14:42.237Z,99528.03
2023-01-25T08:15:45.192Z,99529.50
2023-01-25T08:16:48.380Z,99532.31
2023-01-25T08:17:51.515Z,99534.31
2023-01-25T08:18:59.169Z,99534.84
2023-01-25T08:20:02.260Z,99527.22
2023-01-25T08:21:05.620Z,99531.88
2023-01-25T08:22:09.313Z,99525.69
2023-01-25T08:23:12.382Z,99525.94
2023-01-25T08:24:20.666Z,99528.63
2023-01-25T08:25:23.559Z,99530.34
2023-01-25T08:26:27.531Z,99524.47
2023-01-25T08:27:30.458Z,99525.69
2023-01-25T08:28:34.376Z,99526.19
2023-01-25T08:29:37.453Z,99521.72
2023-01-25T08:30:52.040Z,99523.75
2023-01-25T08:31:59.579Z,99526.22
2023-01-25T08:33:02.744Z,99526.72
2023-01-25T08:34:06.994Z,99523.75
2023-01-25T08:35:10.393Z,99526.97
2023-01-25T08:36:15.364Z,99528.97
2023-01-25T08:37:18.415Z,99529.47
2023-01-25T08:38:21.443Z,99521.34
2023-01-25T08:39:24.619Z,99523.59
2023-01-25T08:40:27.574Z,99526.34
2023-01-25T08:41:31.976Z,99520.94
2023-01-25T08:42:37.919Z,99518.00
2023-01-25T08:43:40.852Z,99518.72
2023-01-25T08:44:43.882Z,99508.34
2023-01-25T08:45:46.759Z,99505.91
2023-01-25T08:46:50.241Z,99516.03
2023-01-25T08:47:53.187Z,99509.12
2023-01-25T08:49:00.003Z,99511.06
2023-01-25T08:50:03.221Z,99510.34
2023-01-25T08:51:13.200Z,99510.63
2023-01-25T08:52:16.351Z,99507.41
2023-01-25T08:53:20.023Z,99507.94
2023-01-25T08:54:24.842Z,99518.53
2023-01-25T08:55:27.794Z,99517.56
2023-01-25T08:56:30.708Z,99506.50
2023-01-25T08:57:33.784Z,99513.41
2023-01-25T08:58:44.679Z,99505.50
2023-01-25T08:59:48.072Z,99506.97
2023-01-25T09:00:51.086Z,99511.19
2023-01-25T09:01:54.141Z,99514.63
2023-01-25T09:02:56.930Z,99509.69
2023-01-25T09:03:59.829Z,99509.97
2023-01-25T09:05:02.821Z,99509.69
2023-01-25T09:06:06.546Z,99513.41
2023-01-25T09:07:09.288Z,99508.97
2023-01-25T09:08:14.033Z,99504.53
2023-01-25T09:09:17.864Z,99507.25
2023-01-25T09:10:20.895Z,99508.00
2023-01-25T09:11:24.674Z,99512.19
2023-01-25T09:12:27.733Z,99509.72
2023-01-25T09:13:31.287Z,99514.41
2023-01-25T09:14:34.151Z,99510.22
2023-01-25T09:15:37.006Z,99509.97
2023-01-25T09:16:39.911Z,99501.31
2023-01-25T09:17:42.873Z,99507.25
2023-01-25T09:18:46.174Z,99509.47
2023-01-25T09:20:57.342Z,99505.28
2023-01-25T09:22:00.509Z,99510.44
2023-01-25T09:23:03.360Z,99505.78
2023-01-25T09:24:07.921Z,99508.50
2023-01-25T09:25:15.164Z,99506.50
2023-01-25T09:26:19.196Z,99507.72
2023-01-25T09:27:22.161Z,99505.00
2023-01-25T09:28:27.948Z,99505.50
2023-01-25T09:29:31.641Z,99504.97
2023-01-25T09:30:46.215Z,99499.81
2023-01-25T09:31:51.930Z,99502.06
2023-01-25T09:32:54.847Z,99495.12
2023-01-25T09:33:58.656Z,99495.63
2023-01-25T09:35:01.463Z,99500.28
2023-01-25T09:36:05.289Z,99495.38
2023-01-25T09:37:08.420Z,99497.13
2023-01-25T09:38:11.589Z,99503.75
2023-01-25T09:39:20.959Z,99499.31
2023-01-25T09:40:28.941Z,99499.31
2023-01-25T09:41:37.860Z,99510.69
2023-01-25T09:43:03.762Z,99500.78
2023-01-25T09:44:24.422Z,99502.97
2023-01-25T09:45:36.731Z,99503.75
2023-01-25T09:46:45.720Z,99494.59
2023-01-25T09:48:18.725Z,99493.34
2023-01-25T09:49:36.671Z,99486.69
2023-01-25T09:50:45.641Z,99485.00
2023-01-25T09:52:08.761Z,99491.37
2023-01-25T09:53:17.498Z,99484.97
2023-01-25T09:54:21.120Z,99487.47
2023-01-25T09:55:28.458Z,99482.53
2023-01-25T09:56:35.965Z,99479.81
2023-01-25T09:57:42.284Z,99479.81
2023-01-25T09:58:49.215Z,99474.41
2023-01-25T09:59:54.790Z,99484.28
2023-01-25T10:01:37.464Z,99475.66
2023-01-25T10:02:53.417Z,99472.94
2023-01-25T10:04:07.468Z,99479.84
2023-01-25T10:05:21.165Z,99472.94
2023-01-25T10:06:36.372Z,99472.94
2023-01-25T10:07:49.003Z,99469.25
2023-01-25T10:09:08.952Z,99461.38
2023-01-25T10:10:18.984Z,99465.31
2023-01-25T10:11:34.729Z,99455.72
2023-01-25T10:12:39.430Z,99454.97
2023-01-25T10:13:43.795Z,99457.69
2023-01-25T10:14:47.937Z,99450.03
2023-01-25T10:15:56.395Z,99450.03
2023-01-25T10:17:08.417Z,99443.13
2023-01-25T10:18:18.982Z,99449.28
2023-01-25T10:19:39.305Z,99441.16
2023-01-25T10:21:24.263Z,99436.97
2023-01-25T10:22:45.223Z,99441.44
2023-01-25T10:24:12.539Z,99437.22
2023-01-25T10:25:28.519Z,99439.94
2023-01-25T10:26:36.212Z,99436.00
2023-01-25T10:28:01.807Z,99447.59
2023-01-25T10:29:13.634Z,99437.47
2023-01-25T10:30:22.425Z,99432.78
2023-01-25T10:31:44.731Z,99436.00
2023-01-25T10:32:55.960Z,99428.34
2023-01-25T10:34:02.373Z,99423.66
2023-01-25T10:35:34.785Z,99434.25
2023-01-25T10:36:42.542Z,99429.84
2023-01-25T10:37:46.345Z,99420.47
2023-01-25T10:38:59.615Z,99425.38
2023-01-25T10:40:18.822Z,99422.66
2023-01-25T10:41:43.479Z,99426.84
2023-01-25T10:42:51.766Z,99420.66
2023-01-25T10:44:14.013Z,99413.78
2023-01-25T10:45:17.906Z,99422.16
2023-01-25T10:46:26.277Z,99421.41
2023-01-25T10:47:34.482Z,99409.59
2023-01-25T10:48:39.735Z,99410.56
2023-01-25T10:49:48.217Z,99417.00
2023-01-25T10:50:57.689Z,99411.31
2023-01-25T10:52:24.873Z,99414.25
2023-01-25T10:53:45.141Z,99416.97
2023-01-25T10:54:52.877Z,99412.81
2023-01-25T10:56:00.780Z,99412.03
2023-01-25T10:57:08.047Z,99417.72
2023-01-25T10:58:34.961Z,99416.25
2023-01-25T10:59:38.455Z,99419.69
2023-01-25T11:00:41.873Z,99412.53
2023-01-25T11:01:45.587Z,99403.41
2023-01-25T11:02:48.921Z,99404.88
2023-01-25T11:03:52.285Z,99406.13
2023-01-25T11:04:55.296Z,99406.59
2023-01-25T11:05:59.625Z,99399.97
2023-01-25T11:07:06.301Z,99401.44
2023-01-25T11:08:25.080Z,99398.47
2023-01-25T11:09:32.769Z,99405.13
2023-01-25T11:10:38.213Z,99400.94
2023-01-25T11:11:41.670Z,99391.31
2023-01-25T11:12:44.801Z,99394.06
2023-01-25T11:13:47.935Z,99390.34
2023-01-25T11:14:50.972Z,99395.75
2023-01-25T11:16:02.033Z,99391.84
2023-01-25T11:17:06.565Z,99395.00
2023-01-25T11:18:28.830Z,99388.84
2023-01-25T11:19:33.742Z,99392.28
2023-01-25T11:20:36.765Z,99381.97
2023-01-25T11:21:53.401Z,99386.41
2023-01-25T11:22:57.730Z,99378.31
2023-01-25T11:24:06.032Z,99380.25
2023-01-25T11:25:32.151Z,99382.97
2023-01-25T11:26:39.989Z,99373.31
2023-01-25T11:27:43.030Z,99371.62
2023-01-25T11:28:51.227Z,99370.41
2023-01-25T11:30:07.474Z,99362.78
2023-01-25T11:31:14.927Z,99370.91
2023-01-25T11:32:21.977Z,99362.28
2023-01-25T11:33:26.967Z,99366.69
2023-01-25T11:34:30.615Z,99362.75
2023-01-25T11:35:36.405Z,99361.25
2023-01-25T11:37:08.379Z,99363.50
2023-01-25T11:38:14.421Z,99361.25
2023-01-25T11:39:36.268Z,99361.53
2023-01-25T11:40:58.065Z,99354.84
2023-01-25T11:42:13.874Z,99344.72
2023-01-25T11:43:38.620Z,99347.69
2023-01-25T11:44:47.213Z,99340.75
2023-01-25T11:46:05.448Z,99339.53
2023-01-25T11:47:20.039Z,99328.16
2023-01-25T11:48:46.795Z,99333.09
2023-01-25T11:50:08.761Z,99325.44
2023-01-25T11:51:33.713Z,99323.47
2023-01-25T11:53:03.613Z,99318.75
2023-01-25T11:54:25.185Z,99314.78
2023-01-25T11:56:07.212Z,99309.88
2023-01-25T11:57:37.067Z,99310.31
2023-01-25T11:58:57.783Z,99303.44
2023-01-25T12:00:19.329Z,99291.63
2023-01-25T12:01:43.048Z,99290.13
2023-01-25T12:02:51.513Z,99293.56
2023-01-25T12:04:25.060Z,99284.91
2023-01-25T12:05:49.187Z,99287.88
2023-01-25T12:07:00.568Z,99287.09
2023-01-25T12:08:19.023Z,99280.19
2023-01-25T12:09:30.647Z,99285.34
2023-01-25T12:10:43.910Z,99279.91
2023-01-25T12:11:56.153Z,99286.06
2023-01-25T12:13:31.411Z,99282.09
2023-01-25T12:15:22.890Z,99282.78
2023-01-25T12:16:31.996Z,99276.97
2023-01-25T12:17:34.855Z,99272.00
2023-01-25T12:18:43.769Z,99267.34
2023-01-25T12:20:26.527Z,99270.88
2023-01-25T12:21:48.230Z,99264.97
2023-01-25T12:22:59.389Z,99271.13
2023-01-25T12:24:11.590Z,99266.22
2023-01-25T12:25:24.390Z,99264.25
2023-01-25T12:26:56.428Z,99267.19
2023-01-25T12:28:15.526Z,99261.47
2023-01-25T12:29:37.417Z,99268.16
2023-01-25T12:30:59.134Z,99260.00
2023-01-25T12:32:31.905Z,99257.03
2023-01-25T12:33:48.100Z,99264.16
2023-01-25T12:35:16.448Z,99264.16
2023-01-25T12:36:29.867Z,99261.66
2023-01-25T12:37:40.337Z,99262.22
2023-01-25T12:39:02.944Z,99259.31
2023-01-25T12:40:15.812Z,99267.19
2023-01-25T12:41:54.463Z,99263.97
2023-01-25T12:43:01.861Z,99257.81
2023-01-25T12:44:29.917Z,99263.00
2023-01-25T12:45:38.172Z,99262.03
2023-01-25T12:46:46.545Z,99252.50
2023-01-25T12:48:14.553Z,99256.44
2023-01-25T12:50:15.134Z,99257.72
2023-01-25T12:51:20.631Z,99253.50
2023-01-25T12:52:43.182Z,99259.16
2023-01-25T12:53:52.480Z,99253.31
2023-01-25T12:55:00.730Z,99251.81
2023-01-25T12:56:07.872Z,99250.62
2023-01-25T12:57:48.002Z,99246.19
2023-01-25T12:58:57.000Z,99248.94
2023-01-25T13:00:17.354Z,99245.78
2023-01-25T13:01:24.859Z,99250.19
2023-01-25T13:03:02.625Z,99247.00
2023-01-25T13:04:14.653Z,99242.09
2023-01-25T13:05:24.008Z,99244.31
2023-01-25T13:06:49.448Z,99248.03
2023-01-25T13:08:04.275Z,99239.13
2023-01-25T13:09:19.116Z,99236.44
2023-01-25T13:10:30.775Z,99233.97